createdAt,value
2023-04-25T00:00:23.242Z,31.57
2023-04-25T00:01:23.271Z,31.57
2023-04-25T00:02:23.393Z,31.56
2023-04-25T00:03:23.635Z,31.54
2023-04-25T00:04:23.705Z,31.57
2023-04-25T00:05:23.626Z,31.59
2023-04-25T00:06:23.598Z,31.56
2023-04-25T00:07:23.676Z,31.57
2023-04-25T00:08:23.749Z,31.56
2023-04-25T00:09:23.827Z,31.61
2023-04-25T00:10:23.912Z,31.57
2023-04-25T00:11:24.002Z,31.56
2023-04-25T00:12:24.081Z,31.59
2023-04-25T00:13:24.190Z,31.54
2023-04-25T00:14:24.257Z,31.57
2023-04-25T00:15:24.332Z,31.61
2023-04-25T00:16:24.447Z,31.54
2023-04-25T00:17:24.500Z,31.59
2023-04-25T00:18:24.570Z,31.53
2023-04-25T00:19:24.646Z,31.54
2023-04-25T00:20:24.731Z,31.60
2023-04-25T00:21:24.801Z,31.58
2023-04-25T00:22:24.888Z,31.60
2023-04-25T00:23:25.042Z,31.54
2023-04-25T00:24:25.049Z,31.61
2023-04-25T00:25:25.120Z,31.60
2023-04-25T00:26:25.204Z,31.57
2023-04-25T00:27:25.278Z,31.57
2023-04-25T00:28:25.357Z,31.55
2023-04-25T00:29:25.459Z,31.58
2023-04-25T00:30:25.527Z,31.60
2023-04-25T00:31:25.657Z,31.58
2023-04-25T00:32:25.789Z,31.58
2023-04-25T00:33:25.770Z,31.61
2023-04-25T00:34:25.854Z,31.63
2023-04-25T00:35:25.927Z,31.58
2023-04-25T00:36:26.003Z,31.59
2023-04-25T00:37:26.655Z,31.58
2023-04-25T00:38:26.169Z,31.61
2023-04-25T00:39:26.251Z,31.59
2023-04-25T00:40:26.333Z,31.61
2023-04-25T00:41:26.413Z,31.61
2023-04-25T00:42:26.489Z,31.58
2023-04-25T00:43:26.569Z,31.58
2023-04-25T00:44:26.643Z,31.61
2023-04-25T00:45:26.778Z,31.62
2023-04-25T00:46:26.854Z,31.62
2023-04-25T00:47:26.894Z,31.58
2023-04-25T00:48:26.953Z,31.61
2023-04-25T00:49:27.031Z,31.61
2023-04-25T00:50:27.120Z,31.59
2023-04-25T00:51:27.188Z,31.58
2023-04-25T00:52:27.282Z,31.59
2023-04-25T00:53:27.370Z,31.61
2023-04-25T00:54:27.462Z,31.64
2023-04-25T00:55:27.527Z,31.61
2023-04-25T00:56:27.617Z,31.60
2023-04-25T00:57:27.694Z,31.62
2023-04-25T00:58:27.770Z,31.61
2023-04-25T00:59:27.852Z,31.64
2023-04-25T01:00:28.096Z,31.59
2023-04-25T01:01:28.092Z,31.61
2023-04-25T01:02:28.189Z,31.61
2023-04-25T01:03:28.314Z,31.67
2023-04-25T01:04:28.292Z,31.58
2023-04-25T01:05:28.341Z,31.61
2023-04-25T01:06:28.422Z,31.61
2023-04-25T01:07:28.508Z,31.59
2023-04-25T01:08:28.594Z,31.58
2023-04-25T01:09:28.674Z,31.58
2023-04-25T01:10:28.762Z,31.62
2023-04-25T01:11:28.846Z,31.62
2023-04-25T01:12:28.929Z,31.64
2023-04-25T01:13:29.007Z,31.58
2023-04-25T01:14:29.097Z,31.61
2023-04-25T01:15:29.174Z,31.56
2023-04-25T01:16:29.287Z,31.62
2023-04-25T01:17:29.426Z,31.65
2023-04-25T01:18:29.426Z,31.65
2023-04-25T01:19:29.512Z,31.56
2023-04-25T01:20:29.601Z,31.58
2023-04-25T01:21:29.670Z,31.68
2023-04-25T01:22:29.749Z,31.65
2023-04-25T01:23:29.845Z,31.65
2023-04-25T01:24:29.915Z,31.64
2023-04-25T01:25:30.019Z,31.59
2023-04-25T01:26:30.100Z,31.59
2023-04-25T01:27:30.201Z,31.59
2023-04-25T01:28:30.271Z,31.64
2023-04-25T01:29:30.371Z,31.56
2023-04-25T01:30:30.443Z,31.60
2023-04-25T01:31:30.546Z,31.59
2023-04-25T01:32:30.636Z,31.64
2023-04-25T01:33:30.712Z,31.65
2023-04-25T01:34:30.776Z,31.62
2023-04-25T01:35:30.847Z,31.60
2023-04-25T01:36:30.920Z,31.58
2023-04-25T01:37:30.994Z,31.59
2023-04-25T01:38:31.083Z,31.62
2023-04-25T01:39:31.164Z,31.63
2023-04-25T01:40:31.246Z,31.61
2023-04-25T01:41:31.324Z,31.60
2023-04-25T01:42:31.390Z,31.60
2023-04-25T01:43:31.463Z,31.64
2023-04-25T01:44:31.529Z,31.60
2023-04-25T01:45:31.589Z,31.63
2023-04-25T01:46:31.738Z,31.53
2023-04-25T01:47:33.082Z,31.57
2023-04-25T01:48:31.815Z,31.58
2023-04-25T01:49:31.962Z,31.59
2023-04-25T01:50:31.963Z,31.58
2023-04-25T01:51:32.055Z,31.60
2023-04-25T01:52:32.149Z,31.59
2023-04-25T01:53:32.236Z,31.57
2023-04-25T01:54:32.304Z,31.57
2023-04-25T01:55:32.354Z,31.60
2023-04-25T01:56:32.432Z,31.59
2023-04-25T01:57:32.505Z,31.62
2023-04-25T01:58:32.592Z,31.56
2023-04-25T01:59:32.668Z,31.60
2023-04-25T02:00:32.749Z,31.65
2023-04-25T02:01:32.862Z,31.59
2023-04-25T02:02:33.011Z,31.62
2023-04-25T02:03:33.168Z,31.63
2023-04-25T02:04:33.222Z,31.62
2023-04-25T02:05:33.162Z,31.59
2023-04-25T02:06:33.234Z,31.62
2023-04-25T02:07:33.315Z,31.60
2023-04-25T02:08:33.404Z,31.57
2023-04-25T02:09:33.494Z,31.63
2023-04-25T02:10:33.590Z,31.62
2023-04-25T02:11:33.668Z,31.65
2023-04-25T02:12:33.759Z,31.60
2023-04-25T02:13:33.834Z,31.59
2023-04-25T02:14:33.931Z,31.54
2023-04-25T02:15:34.061Z,31.62
2023-04-25T02:16:34.203Z,31.60
2023-04-25T02:17:34.175Z,31.57
2023-04-25T02:18:34.291Z,31.57
2023-04-25T02:19:34.349Z,31.63
2023-04-25T02:20:34.465Z,31.59
2023-04-25T02:21:34.521Z,31.60
2023-04-25T02:22:34.598Z,31.56
2023-04-25T02:23:34.673Z,31.60
2023-04-25T02:24:35.176Z,31.55
2023-04-25T02:25:34.844Z,31.57
2023-04-25T02:26:34.922Z,31.59
2023-04-25T02:27:35.024Z,31.57
2023-04-25T02:28:35.106Z,31.60
2023-04-25T02:29:35.180Z,31.59
2023-04-25T02:30:35.257Z,31.60
2023-04-25T02:31:35.356Z,31.62
2023-04-25T02:32:35.509Z,31.60
2023-04-25T02:33:35.510Z,31.57
2023-04-25T02:34:35.588Z,31.59
2023-04-25T02:35:35.655Z,31.60
2023-04-25T02:36:35.769Z,31.61
2023-04-25T02:37:35.813Z,31.60
2023-04-25T02:38:35.895Z,31.62
2023-04-25T02:39:35.959Z,31.57
2023-04-25T02:40:36.047Z,31.56
2023-04-25T02:41:36.142Z,31.57
2023-04-25T02:42:36.207Z,31.59
2023-04-25T02:43:36.297Z,31.59
2023-04-25T02:44:36.381Z,31.59
2023-04-25T02:45:36.473Z,31.60
2023-04-25T02:46:39.317Z,31.59
2023-04-25T02:47:36.605Z,31.59
2023-04-25T02:48:36.574Z,31.60
2023-04-25T02:49:36.594Z,31.56
2023-04-25T02:50:36.617Z,31.59
2023-04-25T02:51:36.642Z,31.61
2023-04-25T02:52:36.665Z,31.60
2023-04-25T02:53:36.676Z,31.61
2023-04-25T02:54:36.684Z,31.54
2023-04-25T02:55:36.701Z,31.60
2023-04-25T02:56:36.717Z,31.59
2023-04-25T02:57:36.736Z,31.54
2023-04-25T02:58:36.752Z,31.61
2023-04-25T02:59:36.772Z,31.59
2023-04-25T03:00:36.842Z,31.59
2023-04-25T03:01:36.807Z,31.59
2023-04-25T03:02:36.921Z,31.59
2023-04-25T03:03:36.969Z,31.61
2023-04-25T03:04:37.144Z,31.60
2023-04-25T03:05:37.078Z,31.56
2023-04-25T03:06:37.149Z,31.59
2023-04-25T03:07:37.231Z,31.59
2023-04-25T03:08:37.355Z,31.54
2023-04-25T03:09:37.390Z,31.60
2023-04-25T03:10:37.473Z,31.56
2023-04-25T03:11:37.564Z,31.57
2023-04-25T03:12:37.664Z,31.60
2023-04-25T03:13:37.722Z,31.57
2023-04-25T03:14:37.785Z,31.61
2023-04-25T03:15:37.856Z,31.60
2023-04-25T03:16:37.949Z,31.60
2023-04-25T03:17:38.117Z,31.56
2023-04-25T03:18:38.075Z,31.61
2023-04-25T03:19:38.146Z,31.59
2023-04-25T03:20:38.218Z,31.63
2023-04-25T03:21:38.301Z,31.58
2023-04-25T03:22:38.363Z,31.57
2023-04-25T03:23:38.438Z,31.59
2023-04-25T03:24:38.534Z,31.61
2023-04-25T03:25:38.586Z,31.66
2023-04-25T03:26:38.663Z,31.61
2023-04-25T03:27:38.730Z,31.57
2023-04-25T03:28:38.810Z,31.59
2023-04-25T03:29:38.851Z,31.56
2023-04-25T03:30:38.920Z,31.57
2023-04-25T03:31:39.053Z,31.56
2023-04-25T03:32:39.108Z,31.61
2023-04-25T03:33:39.165Z,31.56
2023-04-25T03:34:39.252Z,31.59
2023-04-25T03:35:39.332Z,31.59
2023-04-25T03:36:41.619Z,31.56
2023-04-25T03:37:39.409Z,31.59
2023-04-25T03:38:39.424Z,31.53
2023-04-25T03:39:39.444Z,31.64
2023-04-25T03:40:39.566Z,31.56
2023-04-25T03:41:39.469Z,31.58
2023-04-25T03:42:39.483Z,31.61
2023-04-25T03:43:39.494Z,31.56
2023-04-25T03:44:39.506Z,31.54
2023-04-25T03:45:39.560Z,31.56
2023-04-25T03:46:39.584Z,31.53
2023-04-25T03:47:39.588Z,31.56
2023-04-25T03:48:39.625Z,31.56
2023-04-25T03:49:39.603Z,31.59
2023-04-25T03:50:39.619Z,31.56
2023-04-25T03:51:39.630Z,31.53
2023-04-25T03:52:39.647Z,31.53
2023-04-25T03:53:39.664Z,31.56
2023-04-25T03:54:39.670Z,31.56
2023-04-25T03:55:40.784Z,31.57
2023-04-25T03:56:39.728Z,31.54
2023-04-25T03:57:39.725Z,31.53
2023-04-25T03:58:39.752Z,31.51
2023-04-25T03:59:39.753Z,31.51
2023-04-25T04:00:39.770Z,31.53
2023-04-25T04:01:39.784Z,31.52
2023-04-25T04:02:40.539Z,31.56
2023-04-25T04:03:40.054Z,31.58
2023-04-25T04:04:40.317Z,31.50
2023-04-25T04:05:40.060Z,31.54
2023-04-25T04:06:40.076Z,31.50
2023-04-25T04:07:40.147Z,31.51
2023-04-25T04:08:40.217Z,31.48
2023-04-25T04:09:40.299Z,31.47
2023-04-25T04:10:40.363Z,31.50
2023-04-25T04:11:40.460Z,31.45
2023-04-25T04:12:40.536Z,31.50
2023-04-25T04:13:40.610Z,31.47
2023-04-25T04:14:40.697Z,31.47
2023-04-25T04:15:40.778Z,31.45
2023-04-25T04:16:40.854Z,31.43
2023-04-25T04:17:40.940Z,31.45
2023-04-25T04:18:41.010Z,31.47
2023-04-25T04:19:41.095Z,31.44
2023-04-25T04:20:41.159Z,31.47
2023-04-25T04:21:41.237Z,31.45
2023-04-25T04:22:41.310Z,31.47
2023-04-25T04:23:41.381Z,31.48
2023-04-25T04:24:41.445Z,31.45
2023-04-25T04:25:41.515Z,31.45
2023-04-25T04:26:41.597Z,31.44
2023-04-25T04:27:41.674Z,31.48
2023-04-25T04:28:41.780Z,31.47
2023-04-25T04:29:41.839Z,31.45
2023-04-25T04:30:42.078Z,31.45
2023-04-25T04:31:41.973Z,31.44
2023-04-25T04:32:42.050Z,31.48
2023-04-25T04:33:42.123Z,31.48
2023-04-25T04:34:42.153Z,31.42
2023-04-25T04:35:42.216Z,31.44
2023-04-25T04:36:42.291Z,31.48
2023-04-25T04:37:42.372Z,31.47
2023-04-25T04:38:42.494Z,31.47
2023-04-25T04:39:42.544Z,31.43
2023-04-25T04:40:42.594Z,31.47
2023-04-25T04:41:42.692Z,31.48
2023-04-25T04:42:42.775Z,31.47
2023-04-25T04:43:42.854Z,31.42
2023-04-25T04:44:42.930Z,31.48
2023-04-25T04:45:42.961Z,31.49
2023-04-25T04:46:43.407Z,31.47
2023-04-25T04:47:43.112Z,31.47
2023-04-25T04:48:43.122Z,31.44
2023-04-25T04:49:43.199Z,31.42
2023-04-25T04:50:43.282Z,31.47
2023-04-25T04:51:43.315Z,31.41
2023-04-25T04:52:43.376Z,31.45
2023-04-25T04:53:43.423Z,31.45
2023-04-25T04:54:43.508Z,31.44
2023-04-25T04:55:43.568Z,31.45
2023-04-25T04:56:43.665Z,31.38
2023-04-25T04:57:43.722Z,31.47
2023-04-25T04:58:43.782Z,31.37
2023-04-25T04:59:43.841Z,31.38
2023-04-25T05:00:43.966Z,31.38
2023-04-25T05:01:43.958Z,31.44
2023-04-25T05:02:44.103Z,31.43
2023-04-25T05:03:44.163Z,31.38
2023-04-25T05:04:44.271Z,31.39
2023-04-25T05:05:44.174Z,31.44
2023-04-25T05:06:44.522Z,31.37
2023-04-25T05:07:44.278Z,31.34
2023-04-25T05:08:44.303Z,31.37
2023-04-25T05:09:44.346Z,31.38
2023-04-25T05:10:44.390Z,31.33
2023-04-25T05:11:44.441Z,31.20
2023-04-25T05:12:44.494Z,31.16
2023-04-25T05:13:44.634Z,31.12
2023-04-25T05:14:44.659Z,31.03
2023-04-25T05:15:44.705Z,30.94
2023-04-25T05:16:44.875Z,30.84
2023-04-25T05:17:45.250Z,30.69
2023-04-25T05:18:44.914Z,30.60
2023-04-25T05:19:44.972Z,30.62
2023-04-25T05:20:45.047Z,30.56
2023-04-25T05:21:45.132Z,30.47
2023-04-25T05:22:45.247Z,30.47
2023-04-25T05:23:45.268Z,30.56
2023-04-25T05:24:45.340Z,30.51
2023-04-25T05:25:45.405Z,30.60
2023-04-25T05:26:45.472Z,30.63
2023-04-25T05:27:45.544Z,30.49
2023-04-25T05:28:45.640Z,30.36
2023-04-25T05:29:45.695Z,30.39
2023-04-25T05:30:45.788Z,30.48
2023-04-25T05:31:46.316Z,30.36
2023-04-25T05:32:45.936Z,30.31
2023-04-25T05:33:45.985Z,30.23
2023-04-25T05:34:46.111Z,30.17
2023-04-25T05:35:46.164Z,30.31
2023-04-25T05:36:46.223Z,30.11
2023-04-25T05:37:46.286Z,30.09
2023-04-25T05:38:46.335Z,30.15
2023-04-25T05:39:46.376Z,30.29
2023-04-25T05:40:46.403Z,30.25
2023-04-25T05:41:46.435Z,30.44
2023-04-25T05:42:46.761Z,30.36
2023-04-25T05:43:46.811Z,30.25
2023-04-25T05:44:46.591Z,30.24
2023-04-25T05:45:46.736Z,30.14
2023-04-25T05:46:46.760Z,30.40
2023-04-25T05:47:46.889Z,30.41
2023-04-25T05:48:46.893Z,30.33
2023-04-25T05:49:46.924Z,30.38
2023-04-25T05:50:46.977Z,30.47
2023-04-25T05:51:47.263Z,30.46
2023-04-25T05:52:47.071Z,30.59
2023-04-25T05:53:47.169Z,30.66
2023-04-25T05:54:47.146Z,30.54
2023-04-25T05:55:47.258Z,30.61
2023-04-25T05:56:47.214Z,30.81
2023-04-25T05:57:47.703Z,30.82
2023-04-25T05:58:47.301Z,30.85
2023-04-25T05:59:47.338Z,31.02
2023-04-25T06:00:47.778Z,31.26
2023-04-25T06:01:47.472Z,31.24
2023-04-25T06:02:47.713Z,31.47
2023-04-25T06:03:55.498Z,31.42
2023-04-25T06:05:03.456Z,31.58
2023-04-25T06:05:48.630Z,31.70
2023-04-25T06:06:47.677Z,31.78
2023-04-25T06:07:47.785Z,31.94
2023-04-25T06:08:47.820Z,31.93
2023-04-25T06:09:46.660Z,32.04
2023-04-25T06:10:47.668Z,31.81
2023-04-25T06:11:47.678Z,31.44
2023-04-25T06:12:47.668Z,31.40
2023-04-25T06:13:47.813Z,31.29
2023-04-25T06:14:48.766Z,30.83
2023-04-25T06:15:47.824Z,31.07
2023-04-25T06:16:47.833Z,31.06
2023-04-25T06:17:48.536Z,30.91
2023-04-25T06:18:48.294Z,30.87
2023-04-25T06:19:47.888Z,30.78
2023-04-25T06:20:47.873Z,30.75
2023-04-25T06:21:47.897Z,30.64
2023-04-25T06:22:47.956Z,30.76
2023-04-25T06:23:48.320Z,30.80
2023-04-25T06:24:48.023Z,30.65
2023-04-25T06:25:48.067Z,30.62
2023-04-25T06:26:48.071Z,30.56
2023-04-25T06:27:48.277Z,30.59
2023-04-25T06:28:48.078Z,30.48
2023-04-25T06:29:48.083Z,30.54
2023-04-25T06:30:48.276Z,30.51
2023-04-25T06:31:48.186Z,30.56
2023-04-25T06:32:48.129Z,30.48
2023-04-25T06:33:48.578Z,30.40
2023-04-25T06:34:48.110Z,30.37
2023-04-25T06:35:48.166Z,30.36
2023-04-25T06:36:48.161Z,30.35
2023-04-25T06:37:48.274Z,30.42
2023-04-25T06:38:48.398Z,30.42
2023-04-25T06:39:48.198Z,30.47
2023-04-25T06:40:48.278Z,30.37
2023-04-25T06:41:48.242Z,30.22
2023-04-25T06:42:55.687Z,30.26
2023-04-25T06:43:48.305Z,30.12
2023-04-25T06:44:48.275Z,30.12
2023-04-25T06:45:48.728Z,29.95
2023-04-25T06:46:48.314Z,30.15
2023-04-25T06:47:48.310Z,30.12
2023-04-25T06:48:48.468Z,30.15
2023-04-25T06:49:49.307Z,30.11
2023-04-25T06:50:48.250Z,30.15
2023-04-25T06:51:48.303Z,30.24
2023-04-25T06:52:48.568Z,30.19
2023-04-25T06:53:48.415Z,30.12
2023-04-25T06:54:49.444Z,30.28
2023-04-25T06:55:48.514Z,30.48
2023-04-25T06:56:48.418Z,30.57
2023-04-25T06:57:48.389Z,30.31
2023-04-25T06:58:48.815Z,30.17
2023-04-25T06:59:48.399Z,30.33
2023-04-25T07:00:48.443Z,30.20
2023-04-25T07:01:48.300Z,30.29
2023-04-25T07:02:48.454Z,30.21
2023-04-25T07:03:49.406Z,30.06
2023-04-25T07:04:48.399Z,30.04
2023-04-25T07:05:48.303Z,29.84
2023-04-25T07:06:48.277Z,29.99
2023-04-25T07:07:48.300Z,29.97
2023-04-25T07:08:48.286Z,29.76
2023-04-25T07:09:48.305Z,30.10
2023-04-25T07:10:49.886Z,29.84
2023-04-25T07:11:48.306Z,29.93
2023-04-25T07:12:48.464Z,29.78
2023-04-25T07:13:48.279Z,29.59
2023-04-25T07:14:48.817Z,29.57
2023-04-25T07:15:48.316Z,29.64
2023-04-25T07:16:48.373Z,29.37
2023-04-25T07:17:48.802Z,29.45
2023-04-25T07:18:48.617Z,29.85
2023-04-25T07:19:48.302Z,29.75
2023-04-25T07:20:48.303Z,29.72
2023-04-25T07:21:48.308Z,29.70
2023-04-25T07:22:48.836Z,29.42
2023-04-25T07:23:48.337Z,29.47
2023-04-25T07:24:48.336Z,29.37
2023-04-25T07:25:48.313Z,29.29
2023-04-25T07:26:48.799Z,29.21
2023-04-25T07:27:48.331Z,29.34
2023-04-25T07:28:48.530Z,29.49
2023-04-25T07:29:48.549Z,29.68
2023-04-25T07:30:48.762Z,30.02
2023-04-25T07:31:49.000Z,29.68
2023-04-25T07:32:48.663Z,29.62
2023-04-25T07:33:48.329Z,29.79
2023-04-25T07:34:48.751Z,29.77
2023-04-25T07:35:49.293Z,29.80
2023-04-25T07:36:48.928Z,29.92
2023-04-25T07:37:48.553Z,29.98
2023-04-25T07:38:48.711Z,30.01
2023-04-25T07:39:48.414Z,29.93
2023-04-25T07:40:49.140Z,29.68
2023-04-25T07:41:48.907Z,29.95
2023-04-25T07:42:48.585Z,29.79
2023-04-25T07:43:48.597Z,29.72
2023-04-25T07:44:48.720Z,29.78
2023-04-25T07:45:48.994Z,29.86
2023-04-25T07:46:48.581Z,29.65
2023-04-25T07:47:48.604Z,29.79
2023-04-25T07:48:49.512Z,29.35
2023-04-25T07:49:49.130Z,29.71
2023-04-25T07:50:48.366Z,29.66
2023-04-25T07:51:48.578Z,29.72
2023-04-25T07:52:48.618Z,29.66
2023-04-25T07:53:50.687Z,29.64
2023-04-25T07:54:48.591Z,29.71
2023-04-25T07:55:49.004Z,29.89
2023-04-25T07:56:52.659Z,29.86
2023-04-25T07:57:49.082Z,29.91
2023-04-25T07:58:48.698Z,29.81
2023-04-25T07:59:48.398Z,29.74
2023-04-25T08:00:48.388Z,29.77
2023-04-25T08:01:48.394Z,29.65
2023-04-25T08:02:48.957Z,29.33
2023-04-25T08:03:48.573Z,29.45
2023-04-25T08:04:48.976Z,29.51
2023-04-25T08:05:48.425Z,29.48
2023-04-25T08:06:48.392Z,29.44
2023-04-25T08:07:48.825Z,29.24
2023-04-25T08:08:48.960Z,29.53
2023-04-25T08:09:48.401Z,29.59
2023-04-25T08:10:48.812Z,29.47
2023-04-25T08:11:48.417Z,29.43
2023-04-25T08:12:48.392Z,29.32
2023-04-25T08:13:48.514Z,29.40
2023-04-25T08:14:48.396Z,29.27
2023-04-25T08:15:48.846Z,29.45
2023-04-25T08:16:49.409Z,29.32
2023-04-25T08:17:50.320Z,29.48
2023-04-25T08:18:48.462Z,29.56
2023-04-25T08:19:48.417Z,29.43
2023-04-25T08:20:48.430Z,29.38
2023-04-25T08:21:49.208Z,29.43
2023-04-25T08:22:48.829Z,29.56
2023-04-25T08:23:48.405Z,29.54
2023-04-25T08:24:48.829Z,29.50
2023-04-25T08:25:48.816Z,29.56
2023-04-25T08:26:48.407Z,29.59
2023-04-25T08:27:48.411Z,29.58
2023-04-25T08:28:49.047Z,29.61
2023-04-25T08:29:48.391Z,29.49
2023-04-25T08:30:48.386Z,29.48
2023-04-25T08:31:48.490Z,29.64
2023-04-25T08:32:48.416Z,29.41
2023-04-25T08:33:48.826Z,29.28
2023-04-25T08:34:48.419Z,29.34
2023-04-25T08:35:48.401Z,29.55
2023-04-25T08:36:48.366Z,29.61
2023-04-25T08:37:48.372Z,29.64
2023-04-25T08:38:48.922Z,29.67
2023-04-25T08:39:48.356Z,29.69
2023-04-25T08:40:48.353Z,29.39
2023-04-25T08:41:48.345Z,29.50
2023-04-25T08:42:48.910Z,29.48
2023-04-25T08:43:48.388Z,29.54
2023-04-25T08:44:48.323Z,29.54
2023-04-25T08:45:48.337Z,29.38
2023-04-25T08:46:48.963Z,29.41
2023-04-25T08:47:48.482Z,29.24
2023-04-25T08:48:48.328Z,29.38
2023-04-25T08:49:48.478Z,29.24
2023-04-25T08:50:48.314Z,29.28
2023-04-25T08:51:48.378Z,29.23
2023-04-25T08:52:48.347Z,29.11
2023-04-25T08:53:53.573Z,29.26
2023-04-25T08:54:48.288Z,29.24
2023-04-25T08:55:49.261Z,29.15
2023-04-25T08:56:48.248Z,29.23
2023-04-25T08:57:48.416Z,29.28
2023-04-25T08:58:48.389Z,29.15
2023-04-25T08:59:48.294Z,29.13
2023-04-25T09:00:48.327Z,29.13
2023-04-25T09:01:48.263Z,29.21
2023-04-25T09:02:48.459Z,29.23
2023-04-25T09:03:48.382Z,28.91
2023-04-25T09:04:49.249Z,28.94
2023-04-25T09:05:48.251Z,28.94
2023-04-25T09:06:48.220Z,29.05
2023-04-25T09:07:50.486Z,29.01
2023-04-25T09:08:48.192Z,28.88
2023-04-25T09:09:48.210Z,28.85
2023-04-25T09:10:48.221Z,28.91
2023-04-25T09:11:48.353Z,28.87
2023-04-25T09:12:48.158Z,28.90
2023-04-25T09:13:48.184Z,29.08
2023-04-25T09:14:48.155Z,28.94
2023-04-25T09:15:48.364Z,29.05
2023-04-25T09:16:48.365Z,29.07
2023-04-25T09:17:48.184Z,28.83
2023-04-25T09:18:48.816Z,28.99
2023-04-25T09:19:48.119Z,28.93
2023-04-25T09:21:00.033Z,28.80
2023-04-25T09:21:48.578Z,28.92
2023-04-25T09:22:48.103Z,28.81
2023-04-25T09:23:48.099Z,28.71
2023-04-25T09:24:48.782Z,28.52
2023-04-25T09:25:48.107Z,28.44
2023-04-25T09:26:48.070Z,28.42
2023-04-25T09:27:48.087Z,28.42
2023-04-25T09:28:48.434Z,28.33
2023-04-25T09:29:48.414Z,28.32
2023-04-25T09:30:48.142Z,28.29
2023-04-25T09:31:48.579Z,28.16
2023-04-25T09:32:48.571Z,28.05
2023-04-25T09:33:49.391Z,27.78
2023-04-25T09:34:49.541Z,27.66
2023-04-25T09:35:48.108Z,27.59
2023-04-25T09:36:48.158Z,27.44
2023-04-25T09:37:48.212Z,27.43
2023-04-25T09:38:48.453Z,27.34
2023-04-25T09:39:48.260Z,27.27
2023-04-25T09:40:48.340Z,27.18
2023-04-25T09:41:49.008Z,27.05
2023-04-25T09:42:48.364Z,27.11
2023-04-25T09:43:48.393Z,27.02
2023-04-25T09:44:48.626Z,27.03
2023-04-25T09:45:48.854Z,27.05
2023-04-25T09:46:48.841Z,26.93
2023-04-25T09:47:55.948Z,26.82
2023-04-25T09:48:48.500Z,26.82
2023-04-25T09:49:48.487Z,26.80
2023-04-25T09:50:48.485Z,26.77
2023-04-25T09:51:48.478Z,26.77
2023-04-25T09:52:48.475Z,26.83
2023-04-25T09:53:48.706Z,26.79
2023-04-25T09:54:48.847Z,26.74
2023-04-25T09:55:49.440Z,26.69
2023-04-25T09:56:48.443Z,26.61
2023-04-25T09:57:48.438Z,26.65
2023-04-25T09:58:48.561Z,26.46
2023-04-25T09:59:48.877Z,26.47
2023-04-25T10:00:48.419Z,26.50
2023-04-25T10:01:48.525Z,26.46
2023-04-25T10:02:48.937Z,26.49
2023-04-25T10:03:48.559Z,26.49
2023-04-25T10:04:48.908Z,26.45
2023-04-25T10:05:48.384Z,26.46
2023-04-25T10:06:48.372Z,26.51
2023-04-25T10:07:48.373Z,26.43
2023-04-25T10:08:48.368Z,26.18
2023-04-25T10:09:48.854Z,26.19
2023-04-25T10:10:48.668Z,26.22
2023-04-25T10:11:48.342Z,26.15
2023-04-25T10:12:48.339Z,26.23
2023-04-25T10:13:48.603Z,26.25
2023-04-25T10:14:48.861Z,26.20
2023-04-25T10:15:48.337Z,26.28
2023-04-25T10:16:48.315Z,26.30
2023-04-25T10:17:48.374Z,26.13
2023-04-25T10:18:48.314Z,26.19
2023-04-25T10:19:48.404Z,26.19
2023-04-25T10:20:48.312Z,26.14
2023-04-25T10:21:48.338Z,26.05
2023-04-25T10:22:48.376Z,26.04
2023-04-25T10:23:48.437Z,26.10
2023-04-25T10:24:48.380Z,26.14
2023-04-25T10:25:48.322Z,26.12
2023-04-25T10:26:48.294Z,26.07
2023-04-25T10:27:48.323Z,26.00
2023-04-25T10:28:48.378Z,26.05
2023-04-25T10:29:48.390Z,25.97
2023-04-25T10:30:48.349Z,25.86
2023-04-25T10:31:48.342Z,25.90
2023-04-25T10:32:48.401Z,25.90
2023-04-25T10:33:48.717Z,25.91
2023-04-25T10:34:48.427Z,25.96
2023-04-25T10:35:48.367Z,25.93
2023-04-25T10:36:48.391Z,25.85
2023-04-25T10:37:48.338Z,25.83
2023-04-25T10:38:48.386Z,25.69
2023-04-25T10:39:48.381Z,25.73
2023-04-25T10:40:48.344Z,25.68
2023-04-25T10:41:48.308Z,25.68
2023-04-25T10:42:48.312Z,25.63
2023-04-25T10:43:48.320Z,25.55
2023-04-25T10:44:48.373Z,25.63
2023-04-25T10:45:48.324Z,25.62
2023-04-25T10:46:48.351Z,25.57
2023-04-25T10:47:48.423Z,25.36
2023-04-25T10:48:48.342Z,25.38
2023-04-25T10:49:48.382Z,25.43
2023-04-25T10:50:48.355Z,25.47
2023-04-25T10:51:55.505Z,25.45
2023-04-25T10:52:48.327Z,25.43
2023-04-25T10:53:48.512Z,25.43
2023-04-25T10:54:48.357Z,25.52
2023-04-25T10:55:49.318Z,25.47
2023-04-25T10:56:48.333Z,25.47
2023-04-25T10:57:48.352Z,25.30
2023-04-25T10:58:50.255Z,25.25
2023-04-25T10:59:48.375Z,25.20
2023-04-25T11:01:48.470Z,25.09
2023-04-25T11:02:48.573Z,24.96
2023-04-25T11:03:48.599Z,24.96
2023-04-25T11:04:48.464Z,24.99
2023-04-25T11:05:57.740Z,24.93
2023-04-25T11:06:48.320Z,24.83
2023-04-25T11:08:00.041Z,24.87
2023-04-25T11:08:48.821Z,24.87
2023-04-25T11:09:48.399Z,24.84
2023-04-25T11:10:50.159Z,24.80
2023-04-25T11:11:48.411Z,24.87
2023-04-25T11:12:48.328Z,24.77
2023-04-25T11:13:48.407Z,24.86
2023-04-25T11:14:48.353Z,24.78
2023-04-25T11:15:51.861Z,24.78
2023-04-25T11:16:48.407Z,24.27
2023-04-25T11:17:48.433Z,24.60
2023-04-25T11:18:48.377Z,24.57
2023-04-25T11:19:48.397Z,24.51
2023-04-25T11:20:48.352Z,24.79
2023-04-25T11:21:48.385Z,24.81
2023-04-25T11:22:50.288Z,24.78
2023-04-25T11:23:48.688Z,24.82
2023-04-25T11:24:48.377Z,24.73
2023-04-25T11:25:48.401Z,24.66
2023-04-25T11:26:48.398Z,24.73
2023-04-25T11:27:48.385Z,24.55
2023-04-25T11:28:48.394Z,24.49
2023-04-25T11:29:48.380Z,24.43
2023-04-25T11:30:48.384Z,24.43
2023-04-25T11:31:48.468Z,24.23
2023-04-25T11:32:49.924Z,24.23
2023-04-25T11:33:48.698Z,24.30
2023-04-25T11:34:48.454Z,24.28
2023-04-25T11:35:48.485Z,24.05
2023-04-25T11:36:48.501Z,23.96
2023-04-25T11:37:48.532Z,23.99
2023-04-25T11:38:48.573Z,23.97
2023-04-25T11:39:48.635Z,23.97
2023-04-25T11:40:48.895Z,24.06
2023-04-25T11:41:48.652Z,23.96
2023-04-25T11:42:48.670Z,23.83
2023-04-25T11:43:49.342Z,23.92
2023-04-25T11:44:48.893Z,23.99
2023-04-25T11:45:48.772Z,24.08
2023-04-25T11:46:48.777Z,24.04
2023-04-25T11:47:48.859Z,24.10
2023-04-25T11:48:49.059Z,24.03
2023-04-25T11:49:48.897Z,23.80
2023-04-25T11:50:48.917Z,23.74
2023-04-25T11:51:48.960Z,23.68
2023-04-25T11:52:49.392Z,23.77
2023-04-25T11:53:49.006Z,23.81
2023-04-25T11:54:49.062Z,23.98
2023-04-25T11:55:51.352Z,23.97
2023-04-25T11:56:49.395Z,23.90
2023-04-25T11:57:49.395Z,23.81
2023-04-25T11:58:49.403Z,23.61
2023-04-25T11:59:49.091Z,23.71
2023-04-25T12:00:50.066Z,23.92
2023-04-25T12:01:49.083Z,23.79
2023-04-25T12:02:49.607Z,23.99
2023-04-25T12:03:49.287Z,28.61
2023-04-25T12:04:49.291Z,29.42
2023-04-25T12:05:49.270Z,26.96
2023-04-25T12:06:49.441Z,27.23
2023-04-25T12:07:49.399Z,31.80
2023-04-25T12:08:49.305Z,27.38
2023-04-25T12:09:49.120Z,29.12
2023-04-25T12:10:49.116Z,28.82
2023-04-25T12:11:49.165Z,29.72
2023-04-25T12:12:49.399Z,28.66
2023-04-25T12:13:50.145Z,28.02
2023-04-25T12:14:49.907Z,28.19
2023-04-25T12:15:49.156Z,28.98
2023-04-25T12:16:49.138Z,28.75
2023-04-25T12:17:49.163Z,28.50
2023-04-25T12:18:49.405Z,28.19
2023-04-25T12:19:49.410Z,28.01
2023-04-25T12:20:49.165Z,27.87
2023-04-25T12:21:57.261Z,27.66
2023-04-25T12:22:49.405Z,27.49
2023-04-25T12:23:49.404Z,27.53
2023-04-25T12:24:49.414Z,27.40
2023-04-25T12:25:49.184Z,27.28
2023-04-25T12:26:49.191Z,27.41
2023-04-25T12:27:49.434Z,27.33
2023-04-25T12:28:49.449Z,27.22
2023-04-25T12:29:50.067Z,27.27
2023-04-25T12:30:49.193Z,27.30
2023-04-25T12:31:49.226Z,27.26
2023-04-25T12:32:49.437Z,27.20
2023-04-25T12:33:49.238Z,27.17
2023-04-25T12:34:49.214Z,27.27
2023-04-25T12:35:50.203Z,27.17
2023-04-25T12:36:49.218Z,27.18
2023-04-25T12:37:49.227Z,27.08
2023-04-25T12:38:49.434Z,27.03
2023-04-25T12:39:49.298Z,27.05
2023-04-25T12:40:49.227Z,27.11
2023-04-25T12:41:49.301Z,27.04
2023-04-25T12:42:49.413Z,27.15
2023-04-25T12:43:49.392Z,27.20
2023-04-25T12:44:49.427Z,27.07
2023-04-25T12:45:49.477Z,27.14
2023-04-25T12:46:49.989Z,27.08
2023-04-25T12:47:49.619Z,27.17
2023-04-25T12:48:49.777Z,27.27
2023-04-25T12:49:49.683Z,27.10
2023-04-25T12:50:50.427Z,27.11
2023-04-25T12:51:49.798Z,27.24
2023-04-25T12:52:49.917Z,27.16
2023-04-25T12:53:49.920Z,27.07